createdAt,value
2019-05-03T00:02:12.556Z,69.63
2019-05-03T00:04:45.695Z,70.22
2019-05-03T00:07:22.257Z,70.36
2019-05-03T00:09:53.260Z,69.68
2019-05-03T00:12:24.716Z,70.40
2019-05-03T00:14:57.790Z,69.24
2019-05-03T00:17:29.042Z,69.83
2019-05-03T00:20:02.207Z,68.64
2019-05-03T00:22:33.405Z,68.50
2019-05-03T00:25:08.400Z,68.48
2019-05-03T00:27:39.763Z,68.20
2019-05-03T00:30:11.987Z,68.70
2019-05-03T00:32:44.343Z,67.92
2019-05-03T00:35:22.468Z,67.50
2019-05-03T00:37:55.033Z,68.86
2019-05-03T00:40:28.020Z,68.09
2019-05-03T00:43:02.172Z,67.58
2019-05-03T00:45:33.389Z,67.83
2019-05-03T00:48:05.285Z,67.64
2019-05-03T00:50:38.021Z,66.68
2019-05-03T00:53:11.601Z,68.26
2019-05-03T00:55:42.896Z,68.87
2019-05-03T00:58:14.134Z,69.46
2019-05-03T01:00:46.079Z,70.18
2019-05-03T01:03:18.954Z,70.52
2019-05-03T01:05:50.451Z,68.77
2019-05-03T01:08:22.093Z,69.96
2019-05-03T01:10:53.770Z,71.49
2019-05-03T01:13:25.015Z,71.16
2019-05-03T01:15:59.133Z,72.65
2019-05-03T01:18:32.290Z,74.10
2019-05-03T01:21:03.538Z,69.24
2019-05-03T01:23:35.188Z,71.22
2019-05-03T01:26:08.315Z,72.03
2019-05-03T01:28:45.323Z,71.09
2019-05-03T01:31:17.709Z,69.11
2019-05-03T01:33:48.994Z,69.83
2019-05-03T01:36:22.602Z,68.86
2019-05-03T01:38:53.453Z,69.33
2019-05-03T01:41:25.011Z,69.32
2019-05-03T01:43:56.309Z,68.34
2019-05-03T01:46:27.640Z,68.23
2019-05-03T01:49:06.479Z,68.76
2019-05-03T01:51:39.408Z,68.63
2019-05-03T01:54:12.254Z,68.84
2019-05-03T01:56:56.018Z,68.95
2019-05-03T01:59:16.574Z,69.69
2019-05-03T02:01:51.686Z,69.92
2019-05-03T02:04:29.107Z,70.02
2019-05-03T02:07:02.204Z,69.16
2019-05-03T02:09:33.662Z,69.71
2019-05-03T02:12:05.254Z,70.43
2019-05-03T02:14:37.564Z,70.05
2019-05-03T02:17:08.895Z,69.43
2019-05-03T02:19:41.996Z,69.60
2019-05-03T02:22:13.169Z,69.24
2019-05-03T02:24:44.426Z,69.67
2019-05-03T02:27:15.731Z,69.31
2019-05-03T02:29:47.006Z,69.62
2019-05-03T02:32:18.986Z,69.72
2019-05-03T02:34:50.398Z,69.59
2019-05-03T02:37:22.495Z,70.46
2019-05-03T02:39:57.166Z,70.18
2019-05-03T02:42:28.467Z,70.23
2019-05-03T02:45:00.260Z,70.44
2019-05-03T02:47:39.169Z,70.70
2019-05-03T02:50:12.392Z,70.90
2019-05-03T02:52:45.819Z,71.10
2019-05-03T02:55:17.000Z,71.47
2019-05-03T02:57:48.294Z,71.29
2019-05-03T03:00:25.602Z,71.37
2019-05-03T03:02:57.015Z,70.94
2019-05-03T03:05:28.458Z,69.98
2019-05-03T03:07:59.704Z,69.39
2019-05-03T03:10:31.504Z,66.86
2019-05-03T03:13:05.891Z,66.92
2019-05-03T03:15:40.247Z,66.79
2019-05-03T03:18:12.310Z,66.51
2019-05-03T03:20:46.710Z,66.26
2019-05-03T03:23:20.301Z,65.71
2019-05-03T03:25:55.927Z,66.13
2019-05-03T03:28:28.455Z,65.78
2019-05-03T03:31:09.962Z,65.44
2019-05-03T03:33:41.171Z,65.06
2019-05-03T03:36:37.784Z,64.85
2019-05-03T03:38:46.061Z,64.79
2019-05-03T03:41:17.652Z,64.98
2019-05-03T03:43:51.959Z,65.24
2019-05-03T03:46:25.339Z,65.29
2019-05-03T03:48:57.707Z,65.68
2019-05-03T03:51:31.140Z,66.22
2019-05-03T03:54:06.049Z,65.92
2019-05-03T03:56:56.042Z,65.93
2019-05-03T03:59:15.732Z,66.17
2019-05-03T04:01:47.681Z,65.85
2019-05-03T04:04:28.162Z,65.44
2019-05-03T04:07:01.395Z,65.87
2019-05-03T04:09:36.080Z,65.62
2019-05-03T04:12:06.789Z,65.51
2019-05-03T04:14:46.944Z,66.03
2019-05-03T04:17:36.235Z,65.85
2019-05-03T04:20:09.215Z,65.57
2019-05-03T04:22:42.080Z,65.70
2019-05-03T04:25:15.470Z,65.23
2019-05-03T04:27:49.150Z,65.30
2019-05-03T04:30:20.658Z,65.32
2019-05-03T04:32:52.128Z,64.68
2019-05-03T04:35:26.238Z,65.14
2019-05-03T04:37:56.665Z,64.81
2019-05-03T04:40:27.925Z,65.25
2019-05-03T04:42:59.160Z,65.56
2019-05-03T04:45:30.603Z,65.69
2019-05-03T04:48:01.905Z,65.73
2019-05-03T04:50:36.547Z,65.53
2019-05-03T04:53:06.888Z,65.01
2019-05-03T04:55:39.130Z,65.14
2019-05-03T04:58:10.377Z,65.60
2019-05-03T05:00:41.629Z,64.48
2019-05-03T05:03:15.117Z,63.98
2019-05-03T05:05:46.174Z,64.01
2019-05-03T05:08:17.885Z,64.93
2019-05-03T05:10:55.815Z,65.06
2019-05-03T05:13:25.059Z,64.98
2019-05-03T05:15:57.095Z,64.48
2019-05-03T05:18:35.347Z,64.71
2019-05-03T05:21:10.682Z,64.08
2019-05-03T05:23:49.973Z,63.72
2019-05-03T05:26:24.814Z,63.41
2019-05-03T05:28:57.839Z,62.74
2019-05-03T05:31:29.133Z,63.72
2019-05-03T05:34:02.426Z,63.67
2019-05-03T05:36:34.762Z,63.25
2019-05-03T05:39:09.310Z,62.88
2019-05-03T05:41:40.768Z,63.15
2019-05-03T05:44:12.166Z,62.89
2019-05-03T05:46:48.202Z,62.04
2019-05-03T05:49:37.321Z,62.38
2019-05-03T05:52:08.949Z,62.11
2019-05-03T05:54:42.026Z,61.98
2019-05-03T05:57:25.470Z,62.17
2019-05-03T05:59:58.174Z,61.57
2019-05-03T06:02:29.523Z,61.59
2019-05-03T06:05:00.999Z,62.52
2019-05-03T06:07:44.218Z,61.66
2019-05-03T06:10:34.691Z,60.83
2019-05-03T06:13:10.762Z,61.22
2019-05-03T06:15:57.405Z,62.01
2019-05-03T06:18:39.340Z,61.80
2019-05-03T06:21:28.181Z,61.64
2019-05-03T06:24:17.778Z,60.96
2019-05-03T06:26:48.952Z,60.66
2019-05-03T06:29:20.254Z,60.95
2019-05-03T06:32:09.364Z,61.60
2019-05-03T06:34:41.914Z,61.83
2019-05-03T06:37:15.023Z,61.91
2019-05-03T06:39:46.383Z,60.60
2019-05-03T06:42:19.747Z,60.08
2019-05-03T06:44:50.891Z,60.46
2019-05-03T06:47:22.214Z,60.68
2019-05-03T06:49:55.237Z,61.32
2019-05-03T06:52:29.315Z,61.25
2019-05-03T06:55:00.247Z,61.19
2019-05-03T06:57:32.982Z,60.17
2019-05-03T07:00:18.009Z,60.06
2019-05-03T07:02:50.944Z,59.80
2019-05-03T07:05:22.023Z,59.29
2019-05-03T07:07:57.688Z,58.85
2019-05-03T07:10:30.683Z,59.58
2019-05-03T07:13:04.995Z,57.70
2019-05-03T07:15:36.763Z,58.06
2019-05-03T07:18:08.247Z,56.66
2019-05-03T07:20:58.964Z,57.58
2019-05-03T07:23:30.428Z,56.37
2019-05-03T07:26:05.217Z,56.76
2019-05-03T07:28:46.417Z,56.78
2019-05-03T07:31:09.521Z,57.65
2019-05-03T07:33:40.782Z,55.75
2019-05-03T07:36:12.486Z,54.63
2019-05-03T07:38:45.352Z,54.71
2019-05-03T07:41:17.231Z,55.61
2019-05-03T07:43:48.607Z,55.94
2019-05-03T07:46:19.894Z,53.99
2019-05-03T07:48:51.323Z,53.27
2019-05-03T07:51:24.683Z,53.32
2019-05-03T07:53:55.857Z,53.08
2019-05-03T07:56:31.878Z,53.16
2019-05-03T07:59:06.372Z,52.17
2019-05-03T08:01:45.617Z,52.70
2019-05-03T08:04:17.482Z,54.80
2019-05-03T08:06:50.026Z,54.53
2019-05-03T08:09:21.280Z,54.12
2019-05-03T08:11:54.650Z,53.59
2019-05-03T08:14:25.749Z,53.75
2019-05-03T08:17:00.373Z,54.00
2019-05-03T08:19:31.635Z,54.32
2019-05-03T08:22:04.750Z,53.88
2019-05-03T08:24:37.865Z,53.31
2019-05-03T08:27:09.351Z,53.37
2019-05-03T08:29:40.861Z,52.39
2019-05-03T08:32:30.101Z,52.96
2019-05-03T08:35:06.333Z,53.56
2019-05-03T08:37:48.187Z,52.84
2019-05-03T08:40:24.557Z,53.68
2019-05-03T08:42:56.964Z,53.39
2019-05-03T08:45:28.302Z,52.23
2019-05-03T08:47:59.710Z,51.72
2019-05-03T08:50:31.064Z,51.21
2019-05-03T08:53:04.908Z,52.06
2019-05-03T08:55:35.626Z,50.93
2019-05-03T08:58:08.506Z,50.87
2019-05-03T09:00:41.566Z,52.82
2019-05-03T09:03:14.396Z,53.21
2019-05-03T09:05:46.482Z,50.86
2019-05-03T09:08:18.019Z,50.45
2019-05-03T09:10:59.676Z,51.15
2019-05-03T09:13:49.126Z,52.79
2019-05-03T09:16:20.544Z,50.31
2019-05-03T09:18:52.065Z,51.44
2019-05-03T09:21:25.328Z,50.70
2019-05-03T09:23:57.194Z,51.84
2019-05-03T09:26:29.543Z,52.35
2019-05-03T09:29:01.089Z,51.00
2019-05-03T09:31:32.554Z,49.33
2019-05-03T09:34:08.076Z,47.85
2019-05-03T09:36:38.094Z,47.93
2019-05-03T09:39:09.656Z,46.70
2019-05-03T09:41:40.944Z,48.80
2019-05-03T09:44:14.974Z,49.07
2019-05-03T09:46:46.627Z,44.11
2019-05-03T09:49:17.923Z,46.78
2019-05-03T09:51:49.778Z,47.41
2019-05-03T09:54:22.925Z,45.54
2019-05-03T09:56:58.530Z,44.42
2019-05-03T09:59:32.080Z,46.98
2019-05-03T10:02:15.859Z,47.47
2019-05-03T10:04:46.496Z,47.53
2019-05-03T10:07:25.805Z,44.47
2019-05-03T10:09:57.685Z,44.98
2019-05-03T10:12:31.022Z,46.23
2019-05-03T10:15:02.793Z,43.94
2019-05-03T10:17:35.085Z,45.63
2019-05-03T10:20:09.999Z,47.05
2019-05-03T10:22:42.115Z,48.56
2019-05-03T10:25:13.805Z,48.61
2019-05-03T10:27:48.328Z,47.58
2019-05-03T10:30:22.661Z,47.76
2019-05-03T10:32:58.723Z,47.61
2019-05-03T10:35:29.969Z,48.05
2019-05-03T10:38:01.254Z,48.47
2019-05-03T10:40:32.627Z,48.77
2019-05-03T10:43:04.863Z,48.92
2019-05-03T10:45:38.395Z,47.18
2019-05-03T10:48:09.886Z,45.14
2019-05-03T10:50:41.323Z,45.79
2019-05-03T10:53:30.156Z,43.31
2019-05-03T10:56:23.425Z,43.60
2019-05-03T10:59:06.168Z,44.40
2019-05-03T11:01:57.763Z,43.44
2019-05-03T11:04:29.990Z,44.59
2019-05-03T11:07:01.389Z,44.22
2019-05-03T11:09:47.252Z,43.38
2019-05-03T11:12:05.899Z,41.03
2019-05-03T11:14:39.286Z,44.12
2019-05-03T11:17:10.653Z,41.88
2019-05-03T11:19:42.070Z,40.98
2019-05-03T11:22:15.017Z,42.12
2019-05-03T11:24:46.378Z,42.63
2019-05-03T11:27:19.263Z,42.35
2019-05-03T11:29:59.238Z,43.37
2019-05-03T11:32:35.261Z,42.47
2019-05-03T11:35:17.039Z,41.18
2019-05-03T11:37:52.836Z,41.70
2019-05-03T11:40:25.183Z,43.14
2019-05-03T11:42:59.426Z,44.00
2019-05-03T11:45:30.838Z,43.60
2019-05-03T11:48:02.285Z,42.41
2019-05-03T11:50:34.747Z,42.92
2019-05-03T11:53:08.261Z,44.29
2019-05-03T11:55:39.540Z,45.77
2019-05-03T11:58:19.138Z,47.67
2019-05-03T12:01:11.761Z,47.97
2019-05-03T12:03:45.030Z,47.52
2019-05-03T12:06:16.863Z,47.49
2019-05-03T12:08:48.380Z,47.94
2019-05-03T12:11:19.774Z,49.29
2019-05-03T12:14:03.866Z,48.85
2019-05-03T12:17:08.624Z,50.12
2019-05-03T12:19:15.681Z,50.87
2019-05-03T12:21:38.106Z,50.29
2019-05-03T12:24:10.268Z,50.80
2019-05-03T12:26:46.797Z,51.71
2019-05-03T12:29:16.520Z,51.78
2019-05-03T12:31:59.669Z,53.17
2019-05-03T12:34:34.994Z,55.44
2019-05-03T12:37:05.679Z,55.39
2019-05-03T12:39:37.656Z,56.70
2019-05-03T12:42:09.544Z,59.34
2019-05-03T12:44:40.923Z,61.81
2019-05-03T12:47:14.473Z,59.65
2019-05-03T12:49:45.320Z,59.71
2019-05-03T12:52:17.342Z,59.68
2019-05-03T12:54:48.900Z,61.26
2019-05-03T12:57:20.200Z,59.08
2019-05-03T13:00:05.493Z,59.01
2019-05-03T13:02:42.218Z,58.01
2019-05-03T13:05:15.389Z,52.76
2019-05-03T13:07:51.321Z,53.19
2019-05-03T13:10:26.559Z,53.15
2019-05-03T13:12:58.427Z,54.76
2019-05-03T13:15:29.902Z,56.01
2019-05-03T13:18:01.226Z,54.37
2019-05-03T13:20:32.642Z,56.16
2019-05-03T13:23:05.456Z,57.32
2019-05-03T13:25:37.122Z,56.60
2019-05-03T13:28:08.405Z,55.70
2019-05-03T13:30:39.695Z,57.39
2019-05-03T13:33:11.037Z,57.31
2019-05-03T13:35:44.455Z,56.65
2019-05-03T13:38:15.775Z,57.76
2019-05-03T13:40:47.905Z,56.25
2019-05-03T13:43:19.136Z,56.08
2019-05-03T13:45:50.521Z,55.65
2019-05-03T13:48:23.554Z,57.68
2019-05-03T13:50:55.219Z,55.15
2019-05-03T13:53:26.814Z,56.27
2019-05-03T13:55:58.463Z,58.16
2019-05-03T13:58:30.211Z,58.70
2019-05-03T14:01:01.716Z,57.33
2019-05-03T14:03:35.211Z,57.90
2019-05-03T14:06:10.585Z,57.40
2019-05-03T14:08:42.002Z,55.62
2019-05-03T14:11:15.541Z,55.12
2019-05-03T14:13:47.506Z,56.16
2019-05-03T14:16:18.738Z,58.29
2019-05-03T14:18:51.780Z,58.09
2019-05-03T14:21:24.663Z,56.87
2019-05-03T14:24:12.879Z,57.40
2019-05-03T14:26:44.877Z,57.23
2019-05-03T14:29:16.357Z,56.79
2019-05-03T14:31:47.785Z,54.24
2019-05-03T14:34:19.219Z,50.20
2019-05-03T14:36:55.454Z,49.17
2019-05-03T14:42:39.570Z,50.91
2019-05-03T14:45:10.940Z,54.22
2019-05-03T14:47:42.435Z,52.33
2019-05-03T14:50:15.035Z,52.96
2019-05-03T14:52:46.494Z,51.23
2019-05-03T14:55:19.512Z,49.49
2019-05-03T14:57:52.511Z,48.35
2019-05-03T15:00:45.167Z,51.37
2019-05-03T15:03:18.249Z,52.48
2019-05-03T15:05:49.495Z,53.48
2019-05-03T15:08:20.816Z,51.59
2019-05-03T15:10:52.117Z,53.79
2019-05-03T15:13:25.138Z,53.59
2019-05-03T15:15:57.985Z,54.18
2019-05-03T15:18:29.491Z,51.32
2019-05-03T15:21:00.939Z,51.75
2019-05-03T15:23:34.353Z,50.45
2019-05-03T15:26:05.497Z,52.28
2019-05-03T15:28:36.900Z,52.96
2019-05-03T15:31:08.218Z,52.05
2019-05-03T15:33:39.543Z,50.81
2019-05-03T15:36:11.085Z,49.93
2019-05-03T15:38:44.531Z,50.76
2019-05-03T15:41:22.856Z,49.68
2019-05-03T15:43:59.477Z,49.95
2019-05-03T15:46:37.161Z,51.30
2019-05-03T15:49:08.555Z,49.57
2019-05-03T15:51:40.250Z,49.75
2019-05-03T15:54:11.649Z,51.71
2019-05-03T15:56:44.788Z,52.20
2019-05-03T15:59:20.971Z,50.13
2019-05-03T16:01:52.567Z,52.89
2019-05-03T16:04:25.098Z,55.12
2019-05-03T16:06:56.614Z,50.73
2019-05-03T16:09:27.976Z,51.73
2019-05-03T16:11:59.356Z,52.65
2019-05-03T16:14:31.628Z,53.03
2019-05-03T16:17:04.470Z,54.41
2019-05-03T16:19:35.981Z,55.24
2019-05-03T16:22:07.654Z,55.94
2019-05-03T16:24:39.166Z,51.38
2019-05-03T16:27:19.104Z,51.06
2019-05-03T16:29:50.663Z,51.29
2019-05-03T16:32:22.029Z,48.55
2019-05-03T16:34:55.002Z,49.83
2019-05-03T16:37:27.827Z,49.26
2019-05-03T16:39:59.330Z,49.26
2019-05-03T16:42:31.015Z,49.22
2019-05-03T16:45:02.739Z,49.41
2019-05-03T16:47:35.454Z,50.36
2019-05-03T16:50:08.038Z,48.84
2019-05-03T16:52:39.532Z,47.00
2019-05-03T16:55:11.301Z,49.41
2019-05-03T16:57:44.323Z,48.77
2019-05-03T17:00:17.931Z,48.02
2019-05-03T17:02:49.467Z,47.13
2019-05-03T17:05:25.196Z,49.12
2019-05-03T17:08:14.759Z,49.28
2019-05-03T17:10:48.033Z,49.09
2019-05-03T17:13:19.393Z,50.71
2019-05-03T17:15:50.896Z,49.84
2019-05-03T17:18:24.511Z,50.40
2019-05-03T17:20:58.463Z,50.88
2019-05-03T17:23:30.252Z,50.00
2019-05-03T17:26:01.687Z,49.85
2019-05-03T17:28:35.176Z,51.99
2019-05-03T17:31:06.479Z,52.17
2019-05-03T17:33:37.892Z,50.52
2019-05-03T17:36:09.508Z,50.16
2019-05-03T17:38:41.005Z,49.79
2019-05-03T17:41:26.314Z,48.62
2019-05-03T17:43:59.242Z,49.34
2019-05-03T17:46:30.610Z,47.68
2019-05-03T17:49:05.256Z,47.91
2019-05-03T17:51:38.272Z,47.17
2019-05-03T17:54:25.217Z,50.01
2019-05-03T17:57:01.403Z,49.56
2019-05-03T17:59:37.610Z,51.88
2019-05-03T18:02:30.979Z,51.43
2019-05-03T18:05:21.898Z,51.40
2019-05-03T18:07:54.558Z,51.50
2019-05-03T18:10:27.814Z,51.42
2019-05-03T18:12:59.653Z,51.70
2019-05-03T18:15:31.228Z,53.82
2019-05-03T18:18:02.660Z,53.45
2019-05-03T18:20:34.607Z,52.42
2019-05-03T18:23:06.185Z,53.15
2019-05-03T18:25:38.559Z,52.50
2019-05-03T18:28:10.438Z,49.80
2019-05-03T18:30:41.682Z,50.29
2019-05-03T18:33:15.253Z,51.54
2019-05-03T18:35:46.533Z,50.93
2019-05-03T18:38:17.970Z,50.79
2019-05-03T18:40:49.373Z,50.04
2019-05-03T18:43:34.969Z,50.36
2019-05-03T18:46:24.030Z,50.75
2019-05-03T18:48:55.433Z,53.11
2019-05-03T18:51:26.880Z,54.91
2019-05-03T18:53:58.281Z,55.83
2019-05-03T18:56:29.745Z,56.82
2019-05-03T18:59:05.105Z,54.93
2019-05-03T19:01:36.794Z,56.56
2019-05-03T19:04:15.602Z,56.67
2019-05-03T19:06:47.008Z,58.23
2019-05-03T19:09:25.258Z,58.99
2019-05-03T19:12:10.474Z,59.23
2019-05-03T19:14:41.929Z,59.71
2019-05-03T19:17:18.847Z,59.67
2019-05-03T19:19:55.160Z,61.63
2019-05-03T19:22:26.912Z,61.73
2019-05-03T19:24:59.468Z,61.57
2019-05-03T19:27:31.720Z,62.64
2019-05-03T19:30:04.663Z,63.74
2019-05-03T19:32:36.694Z,63.21
2019-05-03T19:35:09.821Z,63.13
2019-05-03T19:37:41.355Z,62.98
2019-05-03T19:40:13.135Z,63.80
2019-05-03T19:42:44.779Z,64.31
2019-05-03T19:45:17.428Z,64.48
2019-05-03T19:47:48.813Z,64.34
2019-05-03T19:50:20.310Z,64.43
2019-05-03T19:52:57.316Z,64.31
2019-05-03T19:55:28.724Z,64.80
2019-05-03T19:58:00.865Z,64.18
2019-05-03T20:00:40.806Z,65.09
2019-05-03T20:03:30.293Z,65.34
2019-05-03T20:06:04.919Z,65.59
2019-05-03T20:08:40.852Z,65.48
2019-05-03T20:11:18.247Z,64.99
2019-05-03T20:13:49.616Z,64.60
2019-05-03T20:16:21.039Z,64.26
2019-05-03T20:18:52.627Z,64.24
2019-05-03T20:21:25.304Z,63.84
2019-05-03T20:23:56.829Z,63.31
2019-05-03T20:26:28.449Z,62.94
2019-05-03T20:29:11.655Z,63.52
2019-05-03T20:31:44.680Z,63.85
2019-05-03T20:34:16.776Z,63.73
2019-05-03T20:36:48.103Z,63.66
2019-05-03T20:39:22.279Z,63.70
2019-05-03T20:41:55.026Z,63.77
2019-05-03T20:44:28.295Z,63.88
2019-05-03T20:47:17.278Z,63.91
2019-05-03T20:49:50.196Z,63.72
2019-05-03T20:52:21.593Z,64.12
2019-05-03T20:54:52.995Z,63.97
2019-05-03T20:57:25.370Z,64.65
2019-05-03T20:59:56.731Z,64.23
2019-05-03T21:02:28.054Z,64.58
2019-05-03T21:05:00.192Z,64.68
2019-05-03T21:07:31.486Z,64.36
2019-05-03T21:10:07.395Z,64.04
2019-05-03T21:12:39.835Z,64.29
2019-05-03T21:15:29.399Z,64.78
2019-05-03T21:18:15.192Z,65.20
2019-05-03T21:20:55.527Z,66.24
2019-05-03T21:23:28.557Z,66.50
2019-05-03T21:26:13.347Z,66.85
2019-05-03T21:28:44.959Z,66.87
2019-05-03T21:31:16.357Z,66.74
2019-05-03T21:33:47.784Z,66.30
2019-05-03T21:36:20.741Z,66.80
2019-05-03T21:38:52.098Z,67.92
2019-05-03T21:41:24.640Z,68.85
2019-05-03T21:43:58.786Z,68.57
2019-05-03T21:46:41.586Z,69.12
2019-05-03T21:49:25.405Z,69.70
2019-05-03T21:51:59.827Z,69.81
2019-05-03T21:54:31.213Z,69.43
2019-05-03T21:57:02.883Z,69.44
2019-05-03T21:59:35.449Z,69.95
2019-05-03T22:02:07.177Z,71.17
2019-05-03T22:04:47.314Z,71.65
2019-05-03T22:07:22.535Z,71.38
2019-05-03T22:09:54.491Z,72.18
2019-05-03T22:12:25.971Z,71.24
2019-05-03T22:15:00.095Z,70.57
2019-05-03T22:17:49.555Z,70.23
2019-05-03T22:20:38.566Z,70.04
2019-05-03T22:23:27.803Z,69.93
2019-05-03T22:26:00.759Z,70.13
2019-05-03T22:28:32.506Z,70.71
2019-05-03T22:31:06.620Z,71.05
2019-05-03T22:33:37.267Z,70.99
2019-05-03T22:36:09.159Z,71.10
2019-05-03T22:38:40.813Z,70.78
2019-05-03T22:41:12.152Z,71.24
2019-05-03T22:43:45.543Z,71.39
2019-05-03T22:46:16.550Z,71.51
2019-05-03T22:48:48.368Z,71.24
2019-05-03T22:51:19.740Z,70.37
2019-05-03T22:53:50.993Z,70.08
2019-05-03T22:56:22.352Z,68.72
2019-05-03T22:58:54.815Z,69.13
2019-05-03T23:01:26.334Z,68.67
2019-05-03T23:03:57.657Z,67.81
2019-05-03T23:06:29.059Z,68.22
2019-05-03T23:09:02.442Z,68.04
2019-05-03T23:11:35.561Z,69.86
2019-05-03T23:14:07.012Z,68.01
2019-05-03T23:16:38.447Z,69.76
2019-05-03T23:19:09.963Z,69.24
2019-05-03T23:21:54.514Z,68.86
2019-05-03T23:24:25.864Z,70.02
2019-05-03T23:26:57.201Z,70.63
2019-05-03T23:29:28.597Z,70.98
2019-05-03T23:32:01.440Z,69.68
2019-05-03T23:34:35.088Z,70.70
2019-05-03T23:37:10.964Z,70.42
2019-05-03T23:39:44.296Z,70.07
2019-05-03T23:42:17.048Z,71.60
2019-05-03T23:44:48.516Z,71.55
2019-05-03T23:47:25.421Z,70.14
2019-05-03T23:49:56.775Z,69.44
2019-05-03T23:52:28.426Z,69.21
2019-05-03T23:55:05.717Z,68.61
2019-05-03T23:57:37.037Z,71.05
